sensor_id;sensor_type;location;lat;lon;timestamp;P1;durP1;ratioP1;P2;durP2;ratioP2
4375;SDS011;2202;50.866;12.750;2023-08-31T00:02:22;3.37;;;3.07;;
4375;SDS011;2202;50.866;12.750;2023-08-31T00:04:50;3.80;;;3.50;;
4375;SDS011;2202;50.866;12.750;2023-08-31T00:07:20;3.90;;;2.53;;
4375;SDS011;2202;50.866;12.750;2023-08-31T00:09:47;2.83;;;2.63;;
4375;SDS011;2202;50.866;12.750;2023-08-31T00:12:15;3.00;;;2.63;;
4375;SDS011;2202;50.866;12.750;2023-08-31T00:14:41;3.70;;;2.60;;
4375;SDS011;2202;50.866;12.750;2023-08-31T00:17:08;3.10;;;2.80;;
4375;SDS011;2202;50.866;12.750;2023-08-31T00:19:35;3.37;;;3.07;;
4375;SDS011;2202;50.866;12.750;2023-08-31T00:22:02;2.80;;;2.60;;
4375;SDS011;2202;50.866;12.750;2023-08-31T00:24:30;4.70;;;2.60;;
4375;SDS011;2202;50.866;12.750;2023-08-31T00:26:58;2.90;;;2.60;;
4375;SDS011;2202;50.866;12.750;2023-08-31T00:29:25;2.20;;;2.00;;
4375;SDS011;2202;50.866;12.750;2023-08-31T00:31:52;2.60;;;2.40;;
4375;SDS011;2202;50.866;12.750;2023-08-31T00:34:19;2.90;;;2.70;;
4375;SDS011;2202;50.866;12.750;2023-08-31T00:36:46;2.77;;;2.20;;
4375;SDS011;2202;50.866;12.750;2023-08-31T00:39:13;3.50;;;2.60;;
4375;SDS011;2202;50.866;12.750;2023-08-31T00:41:41;2.70;;;2.20;;
4375;SDS011;2202;50.866;12.750;2023-08-31T00:44:10;2.37;;;2.03;;
4375;SDS011;2202;50.866;12.750;2023-08-31T00:46:37;2.27;;;2.07;;
4375;SDS011;2202;50.866;12.750;2023-08-31T00:49:04;2.60;;;2.40;;
4375;SDS011;2202;50.866;12.750;2023-08-31T00:51:30;2.30;;;2.10;;
4375;SDS011;2202;50.866;12.750;2023-08-31T00:53:57;2.13;;;1.93;;
4375;SDS011;2202;50.866;12.750;2023-08-31T00:56:25;4.30;;;2.40;;
4375;SDS011;2202;50.866;12.750;2023-08-31T00:58:53;3.33;;;2.57;;
4375;SDS011;2202;50.866;12.750;2023-08-31T01:01:23;3.10;;;2.80;;
4375;SDS011;2202;50.866;12.750;2023-08-31T01:03:57;4.20;;;2.97;;
4375;SDS011;2202;50.866;12.750;2023-08-31T01:06:39;4.10;;;3.00;;
4375;SDS011;2202;50.866;12.750;2023-08-31T01:09:19;3.00;;;2.80;;
4375;SDS011;2202;50.866;12.750;2023-08-31T01:11:54;3.20;;;2.90;;
4375;SDS011;2202;50.866;12.750;2023-08-31T01:14:28;3.60;;;3.30;;
4375;SDS011;2202;50.866;12.750;2023-08-31T01:16:59;3.20;;;2.47;;
4375;SDS011;2202;50.866;12.750;2023-08-31T01:19:31;3.83;;;2.90;;
4375;SDS011;2202;50.866;12.750;2023-08-31T01:22:09;3.30;;;3.00;;
4375;SDS011;2202;50.866;12.750;2023-08-31T01:24:40;3.63;;;2.80;;
4375;SDS011;2202;50.866;12.750;2023-08-31T01:27:07;4.10;;;3.67;;
4375;SDS011;2202;50.866;12.750;2023-08-31T01:29:34;3.20;;;2.90;;
4375;SDS011;2202;50.866;12.750;2023-08-31T01:32:04;3.93;;;3.03;;
4375;SDS011;2202;50.866;12.750;2023-08-31T01:34:32;3.83;;;3.43;;
4375;SDS011;2202;50.866;12.750;2023-08-31T01:36:59;4.07;;;3.60;;
4375;SDS011;2202;50.866;12.750;2023-08-31T01:39:33;3.90;;;3.60;;
4375;SDS011;2202;50.866;12.750;2023-08-31T01:42:08;3.60;;;3.30;;
4375;SDS011;2202;50.866;12.750;2023-08-31T01:44:38;4.33;;;3.50;;
4375;SDS011;2202;50.866;12.750;2023-08-31T01:47:06;3.90;;;3.60;;
4375;SDS011;2202;50.866;12.750;2023-08-31T01:49:37;6.97;;;4.43;;
4375;SDS011;2202;50.866;12.750;2023-08-31T01:52:04;4.03;;;3.73;;
4375;SDS011;2202;50.866;12.750;2023-08-31T01:54:31;5.13;;;4.27;;
4375;SDS011;2202;50.866;12.750;2023-08-31T01:56:58;4.70;;;4.27;;
4375;SDS011;2202;50.866;12.750;2023-08-31T01:59:26;4.37;;;3.73;;
4375;SDS011;2202;50.866;12.750;2023-08-31T02:01:53;4.07;;;3.67;;
4375;SDS011;2202;50.866;12.750;2023-08-31T02:04:20;4.60;;;4.20;;
4375;SDS011;2202;50.866;12.750;2023-08-31T02:06:47;4.40;;;4.00;;
4375;SDS011;2202;50.866;12.750;2023-08-31T02:09:14;5.17;;;3.77;;
4375;SDS011;2202;50.866;12.750;2023-08-31T02:11:41;4.23;;;3.83;;
4375;SDS011;2202;50.866;12.750;2023-08-31T02:14:08;4.50;;;4.20;;
4375;SDS011;2202;50.866;12.750;2023-08-31T02:16:36;4.30;;;3.77;;
4375;SDS011;2202;50.866;12.750;2023-08-31T02:19:03;4.83;;;4.43;;
4375;SDS011;2202;50.866;12.750;2023-08-31T02:21:29;5.40;;;4.90;;
4375;SDS011;2202;50.866;12.750;2023-08-31T02:23:56;5.10;;;4.60;;
4375;SDS011;2202;50.866;12.750;2023-08-31T02:26:23;6.77;;;4.27;;
4375;SDS011;2202;50.866;12.750;2023-08-31T02:28:50;5.90;;;4.60;;
4375;SDS011;2202;50.866;12.750;2023-08-31T02:31:17;5.67;;;5.17;;
4375;SDS011;2202;50.866;12.750;2023-08-31T02:33:46;5.10;;;4.60;;
4375;SDS011;2202;50.866;12.750;2023-08-31T02:36:14;5.77;;;5.03;;
4375;SDS011;2202;50.866;12.750;2023-08-31T02:38:41;6.30;;;4.57;;
4375;SDS011;2202;50.866;12.750;2023-08-31T02:41:08;9.60;;;6.30;;
4375;SDS011;2202;50.866;12.750;2023-08-31T02:43:35;6.30;;;5.67;;
4375;SDS011;2202;50.866;12.750;2023-08-31T02:46:02;6.93;;;6.10;;
4375;SDS011;2202;50.866;12.750;2023-08-31T02:48:29;8.27;;;6.73;;
4375;SDS011;2202;50.866;12.750;2023-08-31T02:50:59;6.30;;;5.73;;
4375;SDS011;2202;50.866;12.750;2023-08-31T02:53:27;7.17;;;6.47;;
4375;SDS011;2202;50.866;12.750;2023-08-31T02:55:55;8.87;;;6.00;;
4375;SDS011;2202;50.866;12.750;2023-08-31T02:58:22;6.03;;;5.53;;
4375;SDS011;2202;50.866;12.750;2023-08-31T03:00:50;8.43;;;5.87;;
4375;SDS011;2202;50.866;12.750;2023-08-31T03:03:17;7.23;;;6.60;;
4375;SDS011;2202;50.866;12.750;2023-08-31T03:05:44;7.37;;;6.67;;
4375;SDS011;2202;50.866;12.750;2023-08-31T03:08:12;6.73;;;5.53;;
4375;SDS011;2202;50.866;12.750;2023-08-31T03:10:40;6.17;;;5.57;;
4375;SDS011;2202;50.866;12.750;2023-08-31T03:13:07;5.43;;;4.97;;
4375;SDS011;2202;50.866;12.750;2023-08-31T03:15:33;5.77;;;5.00;;
4375;SDS011;2202;50.866;12.750;2023-08-31T03:18:01;6.20;;;5.60;;
4375;SDS011;2202;50.866;12.750;2023-08-31T03:20:27;5.40;;;4.90;;
4375;SDS011;2202;50.866;12.750;2023-08-31T03:22:54;5.53;;;5.03;;
4375;SDS011;2202;50.866;12.750;2023-08-31T03:25:23;9.10;;;5.90;;
4375;SDS011;2202;50.866;12.750;2023-08-31T03:27:50;6.50;;;5.90;;
4375;SDS011;2202;50.866;12.750;2023-08-31T03:30:16;6.30;;;5.70;;
4375;SDS011;2202;50.866;12.750;2023-08-31T03:32:43;6.97;;;6.23;;
4375;SDS011;2202;50.866;12.750;2023-08-31T03:35:10;5.93;;;5.03;;
4375;SDS011;2202;50.866;12.750;2023-08-31T03:37:37;5.70;;;5.20;;
4375;SDS011;2202;50.866;12.750;2023-08-31T03:40:05;6.90;;;5.97;;
4375;SDS011;2202;50.866;12.750;2023-08-31T03:42:34;6.37;;;5.33;;
4375;SDS011;2202;50.866;12.750;2023-08-31T03:45:01;5.90;;;5.30;;
4375;SDS011;2202;50.866;12.750;2023-08-31T03:47:28;6.33;;;5.73;;
4375;SDS011;2202;50.866;12.750;2023-08-31T03:49:55;5.87;;;5.20;;
4375;SDS011;2202;50.866;12.750;2023-08-31T03:52:22;5.87;;;5.37;;
4375;SDS011;2202;50.866;12.750;2023-08-31T03:54:49;4.80;;;4.40;;
4375;SDS011;2202;50.866;12.750;2023-08-31T03:57:17;11.53;;;5.57;;
4375;SDS011;2202;50.866;12.750;2023-08-31T03:59:45;6.13;;;4.87;;
4375;SDS011;2202;50.866;12.750;2023-08-31T04:02:12;5.80;;;5.20;;
4375;SDS011;2202;50.866;12.750;2023-08-31T04:04:39;5.23;;;4.50;;
4375;SDS011;2202;50.866;12.750;2023-08-31T04:07:06;5.30;;;4.67;;
4375;SDS011;2202;50.866;12.750;2023-08-31T04:09:33;5.20;;;4.70;;
4375;SDS011;2202;50.866;12.750;2023-08-31T04:12:00;4.10;;;3.80;;
4375;SDS011;2202;50.866;12.750;2023-08-31T04:14:27;4.13;;;3.80;;
4375;SDS011;2202;50.866;12.750;2023-08-31T04:16:55;5.83;;;5.23;;
4375;SDS011;2202;50.866;12.750;2023-08-31T04:19:22;3.83;;;3.53;;
4375;SDS011;2202;50.866;12.750;2023-08-31T04:21:49;4.30;;;4.00;;
4375;SDS011;2202;50.866;12.750;2023-08-31T04:24:16;4.63;;;4.23;;
4375;SDS011;2202;50.866;12.750;2023-08-31T04:26:43;4.90;;;4.50;;
4375;SDS011;2202;50.866;12.750;2023-08-31T04:29:10;5.53;;;4.57;;
4375;SDS011;2202;50.866;12.750;2023-08-31T04:31:37;4.30;;;3.90;;
4375;SDS011;2202;50.866;12.750;2023-08-31T04:34:06;4.50;;;4.10;;
4375;SDS011;2202;50.866;12.750;2023-08-31T04:36:33;4.70;;;4.30;;
4375;SDS011;2202;50.866;12.750;2023-08-31T04:38:59;4.23;;;3.93;;
4375;SDS011;2202;50.866;12.750;2023-08-31T04:41:26;6.77;;;4.97;;
4375;SDS011;2202;50.866;12.750;2023-08-31T04:43:52;4.83;;;4.20;;
4375;SDS011;2202;50.866;12.750;2023-08-31T04:46:19;5.47;;;4.70;;
4375;SDS011;2202;50.866;12.750;2023-08-31T04:48:46;4.23;;;3.83;;
4375;SDS011;2202;50.866;12.750;2023-08-31T04:53:57;4.97;;;4.50;;
4375;SDS011;2202;50.866;12.750;2023-08-31T04:56:24;7.03;;;5.10;;
4375;SDS011;2202;50.866;12.750;2023-08-31T04:58:51;5.17;;;4.67;;
4375;SDS011;2202;50.866;12.750;2023-08-31T05:01:18;5.27;;;4.77;;
4375;SDS011;2202;50.866;12.750;2023-08-31T05:03:44;6.40;;;5.00;;
4375;SDS011;2202;50.866;12.750;2023-08-31T05:06:11;5.67;;;4.90;;
4375;SDS011;2202;50.866;12.750;2023-08-31T05:08:39;5.30;;;4.80;;
4375;SDS011;2202;50.866;12.750;2023-08-31T05:11:06;6.10;;;5.50;;
4375;SDS011;2202;50.866;12.750;2023-08-31T05:13:33;5.50;;;4.93;;
4375;SDS011;2202;50.866;12.750;2023-08-31T05:16:00;10.40;;;7.90;;
4375;SDS011;2202;50.866;12.750;2023-08-31T05:18:27;8.33;;;7.50;;
4375;SDS011;2202;50.866;12.750;2023-08-31T05:20:54;5.37;;;4.87;;
4375;SDS011;2202;50.866;12.750;2023-08-31T05:23:21;6.07;;;4.70;;
4375;SDS011;2202;50.866;12.750;2023-08-31T05:25:49;5.30;;;4.80;;
4375;SDS011;2202;50.866;12.750;2023-08-31T05:28:16;4.80;;;4.40;;
4375;SDS011;2202;50.866;12.750;2023-08-31T05:30:47;5.17;;;4.67;;
4375;SDS011;2202;50.866;12.750;2023-08-31T05:33:15;5.50;;;4.77;;
4375;SDS011;2202;50.866;12.750;2023-08-31T05:35:42;7.17;;;5.27;;
4375;SDS011;2202;50.866;12.750;2023-08-31T05:38:09;5.87;;;4.90;;
4375;SDS011;2202;50.866;12.750;2023-08-31T05:40:36;14.90;;;9.97;;
4375;SDS011;2202;50.866;12.750;2023-08-31T05:43:04;6.47;;;5.70;;
4375;SDS011;2202;50.866;12.750;2023-08-31T05:45:32;5.33;;;4.83;;
4375;SDS011;2202;50.866;12.750;2023-08-31T05:47:59;7.00;;;5.70;;
4375;SDS011;2202;50.866;12.750;2023-08-31T05:50:26;5.77;;;5.17;;
4375;SDS011;2202;50.866;12.750;2023-08-31T05:52:53;10.30;;;5.27;;
4375;SDS011;2202;50.866;12.750;2023-08-31T05:55:20;7.17;;;5.03;;
4375;SDS011;2202;50.866;12.750;2023-08-31T05:57:47;5.70;;;5.17;;
4375;SDS011;2202;50.866;12.750;2023-08-31T06:00:16;6.67;;;5.50;;
4375;SDS011;2202;50.866;12.750;2023-08-31T06:02:43;5.40;;;4.90;;
4375;SDS011;2202;50.866;12.750;2023-08-31T06:05:10;5.93;;;5.33;;
4375;SDS011;2202;50.866;12.750;2023-08-31T06:07:38;6.30;;;5.40;;
4375;SDS011;2202;50.866;12.750;2023-08-31T06:10:05;5.67;;;5.10;;
4375;SDS011;2202;50.866;12.750;2023-08-31T06:12:33;6.87;;;5.43;;
4375;SDS011;2202;50.866;12.750;2023-08-31T06:15:00;5.83;;;5.33;;
4375;SDS011;2202;50.866;12.750;2023-08-31T06:17:30;7.57;;;6.90;;
4375;SDS011;2202;50.866;12.750;2023-08-31T06:19:57;7.73;;;5.30;;
4375;SDS011;2202;50.866;12.750;2023-08-31T06:22:24;5.60;;;5.10;;
4375;SDS011;2202;50.866;12.750;2023-08-31T06:24:50;6.30;;;5.77;;
4375;SDS011;2202;50.866;12.750;2023-08-31T06:27:17;7.20;;;5.23;;
4375;SDS011;2202;50.866;12.750;2023-08-31T06:29:44;6.47;;;5.73;;
4375;SDS011;2202;50.866;12.750;2023-08-31T06:32:12;6.77;;;6.10;;
4375;SDS011;2202;50.866;12.750;2023-08-31T06:34:40;6.37;;;5.40;;
4375;SDS011;2202;50.866;12.750;2023-08-31T06:37:07;5.77;;;5.03;;
4375;SDS011;2202;50.866;12.750;2023-08-31T06:39:34;6.50;;;5.90;;
4375;SDS011;2202;50.866;12.750;2023-08-31T06:42:01;5.60;;;5.10;;
4375;SDS011;2202;50.866;12.750;2023-08-31T06:44:28;5.83;;;5.23;;
4375;SDS011;2202;50.866;12.750;2023-08-31T06:46:55;7.13;;;6.03;;
4375;SDS011;2202;50.866;12.750;2023-08-31T06:49:22;5.30;;;4.77;;
4375;SDS011;2202;50.866;12.750;2023-08-31T06:51:50;6.77;;;6.07;;
4375;SDS011;2202;50.866;12.750;2023-08-31T06:54:19;5.93;;;5.03;;
4375;SDS011;2202;50.866;12.750;2023-08-31T06:56:45;6.90;;;4.77;;
4375;SDS011;2202;50.866;12.750;2023-08-31T06:59:13;7.93;;;5.30;;
4375;SDS011;2202;50.866;12.750;2023-08-31T07:01:40;12.30;;;5.50;;
4375;SDS011;2202;50.866;12.750;2023-08-31T07:04:07;6.13;;;5.53;;
4375;SDS011;2202;50.866;12.750;2023-08-31T07:06:34;7.53;;;5.13;;
4375;SDS011;2202;50.866;12.750;2023-08-31T07:09:03;5.90;;;4.73;;
4375;SDS011;2202;50.866;12.750;2023-08-31T07:11:33;7.83;;;5.73;;
4375;SDS011;2202;50.866;12.750;2023-08-31T07:14:00;7.00;;;6.33;;
4375;SDS011;2202;50.866;12.750;2023-08-31T07:16:27;8.33;;;5.50;;
4375;SDS011;2202;50.866;12.750;2023-08-31T07:18:54;5.47;;;4.97;;
4375;SDS011;2202;50.866;12.750;2023-08-31T07:21:20;8.00;;;6.30;;
4375;SDS011;2202;50.866;12.750;2023-08-31T07:23:47;5.80;;;5.20;;
4375;SDS011;2202;50.866;12.750;2023-08-31T07:26:15;5.63;;;5.13;;
4375;SDS011;2202;50.866;12.750;2023-08-31T07:28:42;6.17;;;5.57;;
4375;SDS011;2202;50.866;12.750;2023-08-31T07:31:09;5.60;;;5.10;;
4375;SDS011;2202;50.866;12.750;2023-08-31T07:33:36;13.00;;;6.07;;
4375;SDS011;2202;50.866;12.750;2023-08-31T07:36:03;9.07;;;6.20;;
4375;SDS011;2202;50.866;12.750;2023-08-31T07:38:31;6.90;;;5.50;;
4375;SDS011;2202;50.866;12.750;2023-08-31T07:40:59;6.13;;;5.53;;
4375;SDS011;2202;50.866;12.750;2023-08-31T07:43:27;7.77;;;5.77;;
4375;SDS011;2202;50.866;12.750;2023-08-31T07:45:54;8.40;;;6.67;;
4375;SDS011;2202;50.866;12.750;2023-08-31T07:48:21;10.77;;;6.37;;
4375;SDS011;2202;50.866;12.750;2023-08-31T07:50:48;6.37;;;5.77;;
4375;SDS011;2202;50.866;12.750;2023-08-31T07:53:15;7.10;;;5.70;;
4375;SDS011;2202;50.866;12.750;2023-08-31T07:55:50;6.43;;;5.83;;
4375;SDS011;2202;50.866;12.750;2023-08-31T07:58:17;10.67;;;6.53;;
4375;SDS011;2202;50.866;12.750;2023-08-31T08:00:45;6.20;;;5.60;;
4375;SDS011;2202;50.866;12.750;2023-08-31T08:03:12;6.90;;;6.13;;
4375;SDS011;2202;50.866;12.750;2023-08-31T08:05:39;7.40;;;5.83;;
4375;SDS011;2202;50.866;12.750;2023-08-31T08:08:06;6.70;;;6.00;;
4375;SDS011;2202;50.866;12.750;2023-08-31T08:10:33;7.23;;;5.70;;
4375;SDS011;2202;50.866;12.750;2023-08-31T08:13:00;7.40;;;5.43;;
4375;SDS011;2202;50.866;12.750;2023-08-31T08:15:26;5.70;;;5.20;;
4375;SDS011;2202;50.866;12.750;2023-08-31T08:17:55;6.07;;;5.17;;
4375;SDS011;2202;50.866;12.750;2023-08-31T08:20:22;4.90;;;4.50;;
4375;SDS011;2202;50.866;12.750;2023-08-31T08:22:49;15.27;;;5.17;;
4375;SDS011;2202;50.866;12.750;2023-08-31T08:25:17;5.90;;;5.40;;
4375;SDS011;2202;50.866;12.750;2023-08-31T08:27:44;6.57;;;5.43;;
4375;SDS011;2202;50.866;12.750;2023-08-31T08:30:11;6.07;;;5.57;;
4375;SDS011;2202;50.866;12.750;2023-08-31T08:32:38;5.20;;;4.80;;
4375;SDS011;2202;50.866;12.750;2023-08-31T08:35:07;4.23;;;3.80;;
4375;SDS011;2202;50.866;12.750;2023-08-31T08:37:34;7.20;;;4.53;;
4375;SDS011;2202;50.866;12.750;2023-08-31T08:40:01;4.27;;;3.87;;
4375;SDS011;2202;50.866;12.750;2023-08-31T08:42:29;4.53;;;3.50;;
4375;SDS011;2202;50.866;12.750;2023-08-31T08:44:57;5.07;;;4.30;;
4375;SDS011;2202;50.866;12.750;2023-08-31T08:47:24;6.70;;;5.03;;
4375;SDS011;2202;50.866;12.750;2023-08-31T08:49:53;4.83;;;3.90;;
4375;SDS011;2202;50.866;12.750;2023-08-31T08:52:21;6.23;;;5.07;;
4375;SDS011;2202;50.866;12.750;2023-08-31T08:54:49;7.60;;;4.90;;
4375;SDS011;2202;50.866;12.750;2023-08-31T08:57:16;4.33;;;3.90;;
4375;SDS011;2202;50.866;12.750;2023-08-31T08:59:43;4.60;;;3.43;;
4375;SDS011;2202;50.866;12.750;2023-08-31T09:02:10;4.83;;;3.30;;
4375;SDS011;2202;50.866;12.750;2023-08-31T09:04:37;7.90;;;3.50;;
4375;SDS011;2202;50.866;12.750;2023-08-31T09:07:04;4.43;;;3.47;;
4375;SDS011;2202;50.866;12.750;2023-08-31T09:09:35;7.00;;;3.20;;
4375;SDS011;2202;50.866;12.750;2023-08-31T09:12:15;6.40;;;4.10;;
4375;SDS011;2202;50.866;12.750;2023-08-31T09:14:42;6.40;;;4.27;;
4375;SDS011;2202;50.866;12.750;2023-08-31T09:17:09;5.53;;;4.20;;
4375;SDS011;2202;50.866;12.750;2023-08-31T09:19:36;5.47;;;4.60;;
4375;SDS011;2202;50.866;12.750;2023-08-31T09:22:03;7.30;;;3.40;;
4375;SDS011;2202;50.866;12.750;2023-08-31T09:24:40;6.60;;;4.50;;
4375;SDS011;2202;50.866;12.750;2023-08-31T09:27:09;8.00;;;4.00;;
4375;SDS011;2202;50.866;12.750;2023-08-31T09:29:37;7.50;;;4.20;;
4375;SDS011;2202;50.866;12.750;2023-08-31T09:32:05;5.53;;;4.20;;
4375;SDS011;2202;50.866;12.750;2023-08-31T09:34:32;6.70;;;3.53;;
4375;SDS011;2202;50.866;12.750;2023-08-31T09:37:03;4.90;;;3.70;;
4375;SDS011;2202;50.866;12.750;2023-08-31T09:39:35;6.70;;;4.30;;
4375;SDS011;2202;50.866;12.750;2023-08-31T09:42:04;5.23;;;3.97;;
4375;SDS011;2202;50.866;12.750;2023-08-31T09:44:31;8.20;;;5.00;;
4375;SDS011;2202;50.866;12.750;2023-08-31T09:46:58;4.90;;;4.03;;
4375;SDS011;2202;50.866;12.750;2023-08-31T09:49:25;6.20;;;4.53;;
4375;SDS011;2202;50.866;12.750;2023-08-31T09:51:53;5.90;;;4.30;;
4375;SDS011;2202;50.866;12.750;2023-08-31T09:54:20;5.30;;;3.73;;
4375;SDS011;2202;50.866;12.750;2023-08-31T09:56:48;5.53;;;3.87;;
4375;SDS011;2202;50.866;12.750;2023-08-31T09:59:17;5.53;;;3.30;;
4375;SDS011;2202;50.866;12.750;2023-08-31T10:01:45;6.60;;;3.73;;
4375;SDS011;2202;50.866;12.750;2023-08-31T10:04:13;6.93;;;3.40;;
4375;SDS011;2202;50.866;12.750;2023-08-31T10:06:40;4.93;;;3.73;;
4375;SDS011;2202;50.866;12.750;2023-08-31T10:09:07;4.10;;;3.13;;
4375;SDS011;2202;50.866;12.750;2023-08-31T10:11:37;5.13;;;4.03;;
4375;SDS011;2202;50.866;12.750;2023-08-31T10:14:05;6.93;;;3.63;;
4375;SDS011;2202;50.866;12.750;2023-08-31T10:16:33;6.03;;;3.87;;
4375;SDS011;2202;50.866;12.750;2023-08-31T10:19:02;4.90;;;4.00;;
4375;SDS011;2202;50.866;12.750;2023-08-31T10:21:29;7.30;;;4.20;;
4375;SDS011;2202;50.866;12.750;2023-08-31T10:23:56;6.17;;;3.80;;
4375;SDS011;2202;50.866;12.750;2023-08-31T10:26:23;6.73;;;4.33;;
4375;SDS011;2202;50.866;12.750;2023-08-31T10:28:50;6.23;;;4.33;;
4375;SDS011;2202;50.866;12.750;2023-08-31T10:31:18;7.47;;;4.47;;
4375;SDS011;2202;50.866;12.750;2023-08-31T10:33:54;4.63;;;4.23;;
4375;SDS011;2202;50.866;12.750;2023-08-31T10:36:22;6.10;;;4.67;;
4375;SDS011;2202;50.866;12.750;2023-08-31T10:39:04;4.87;;;3.80;;
4375;SDS011;2202;50.866;12.750;2023-08-31T10:41:33;4.57;;;3.67;;
4375;SDS011;2202;50.866;12.750;2023-08-31T10:44:00;4.10;;;3.70;;
4375;SDS011;2202;50.866;12.750;2023-08-31T10:46:28;6.60;;;3.43;;
4375;SDS011;2202;50.866;12.750;2023-08-31T10:48:58;5.17;;;3.70;;
4375;SDS011;2202;50.866;12.750;2023-08-31T10:51:27;5.37;;;4.50;;
4375;SDS011;2202;50.866;12.750;2023-08-31T10:54:05;7.20;;;2.90;;
4375;SDS011;2202;50.866;12.750;2023-08-31T11:02:28;4.83;;;3.00;;
4375;SDS011;2202;50.866;12.750;2023-08-31T11:05:02;6.13;;;3.50;;
4375;SDS011;2202;50.866;12.750;2023-08-31T11:07:33;4.87;;;3.10;;
4375;SDS011;2202;50.866;12.750;2023-08-31T11:10:14;7.03;;;3.07;;
4375;SDS011;2202;50.866;12.750;2023-08-31T11:12:43;5.17;;;3.30;;
4375;SDS011;2202;50.866;12.750;2023-08-31T11:15:11;5.20;;;3.80;;
4375;SDS011;2202;50.866;12.750;2023-08-31T11:17:39;8.33;;;3.20;;
4375;SDS011;2202;50.866;12.750;2023-08-31T11:20:09;4.87;;;3.27;;
4375;SDS011;2202;50.866;12.750;2023-08-31T11:22:39;6.57;;;3.83;;
4375;SDS011;2202;50.866;12.750;2023-08-31T11:25:08;5.27;;;2.70;;
4375;SDS011;2202;50.866;12.750;2023-08-31T11:27:35;4.40;;;2.43;;
4375;SDS011;2202;50.866;12.750;2023-08-31T11:30:03;10.70;;;2.77;;
4375;SDS011;2202;50.866;12.750;2023-08-31T11:32:36;6.50;;;2.70;;
4375;SDS011;2202;50.866;12.750;2023-08-31T11:35:10;4.40;;;2.43;;
4375;SDS011;2202;50.866;12.750;2023-08-31T11:37:37;6.53;;;2.70;;
4375;SDS011;2202;50.866;12.750;2023-08-31T11:40:05;6.03;;;2.90;;
4375;SDS011;2202;50.866;12.750;2023-08-31T11:42:32;5.50;;;2.73;;
4375;SDS011;2202;50.866;12.750;2023-08-31T11:44:59;5.37;;;3.13;;
4375;SDS011;2202;50.866;12.750;2023-08-31T11:47:30;4.97;;;2.80;;
4375;SDS011;2202;50.866;12.750;2023-08-31T11:49:57;5.50;;;2.40;;
4375;SDS011;2202;50.866;12.750;2023-08-31T11:52:26;4.70;;;2.70;;
4375;SDS011;2202;50.866;12.750;2023-08-31T11:54:53;5.50;;;2.53;;
4375;SDS011;2202;50.866;12.750;2023-08-31T11:57:20;6.60;;;2.90;;
4375;SDS011;2202;50.866;12.750;2023-08-31T11:59:52;5.43;;;2.50;;
4375;SDS011;2202;50.866;12.750;2023-08-31T12:02:19;4.53;;;2.27;;
4375;SDS011;2202;50.866;12.750;2023-08-31T12:04:45;8.03;;;2.33;;
4375;SDS011;2202;50.866;12.750;2023-08-31T12:07:15;5.30;;;2.50;;
4375;SDS011;2202;50.866;12.750;2023-08-31T12:09:44;4.90;;;2.50;;
4375;SDS011;2202;50.866;12.750;2023-08-31T12:12:13;4.10;;;1.97;;
4375;SDS011;2202;50.866;12.750;2023-08-31T12:14:40;5.30;;;2.40;;
4375;SDS011;2202;50.866;12.750;2023-08-31T12:17:08;5.33;;;2.33;;
4375;SDS011;2202;50.866;12.750;2023-08-31T12:19:36;4.40;;;2.17;;
4375;SDS011;2202;50.866;12.750;2023-08-31T12:22:04;5.60;;;2.13;;
4375;SDS011;2202;50.866;12.750;2023-08-31T12:27:03;6.80;;;2.20;;
4375;SDS011;2202;50.866;12.750;2023-08-31T12:29:30;5.77;;;2.07;;
4375;SDS011;2202;50.866;12.750;2023-08-31T12:31:57;4.33;;;2.60;;
4375;SDS011;2202;50.866;12.750;2023-08-31T12:34:24;5.67;;;2.60;;
4375;SDS011;2202;50.866;12.750;2023-08-31T12:36:51;4.40;;;2.77;;
4375;SDS011;2202;50.866;12.750;2023-08-31T12:39:18;5.43;;;2.83;;
4375;SDS011;2202;50.866;12.750;2023-08-31T12:41:45;13.50;;;2.70;;
4375;SDS011;2202;50.866;12.750;2023-08-31T12:44:13;4.63;;;2.53;;
4375;SDS011;2202;50.866;12.750;2023-08-31T12:46:40;4.77;;;2.70;;
4375;SDS011;2202;50.866;12.750;2023-08-31T12:49:07;4.70;;;3.03;;
4375;SDS011;2202;50.866;12.750;2023-08-31T12:51:33;6.10;;;2.70;;
4375;SDS011;2202;50.866;12.750;2023-08-31T12:54:00;5.30;;;2.37;;
4375;SDS011;2202;50.866;12.750;2023-08-31T12:56:28;6.20;;;2.47;;
4375;SDS011;2202;50.866;12.750;2023-08-31T12:58:55;5.00;;;2.60;;
4375;SDS011;2202;50.866;12.750;2023-08-31T13:01:23;6.10;;;2.93;;
4375;SDS011;2202;50.866;12.750;2023-08-31T13:03:51;5.57;;;2.73;;
4375;SDS011;2202;50.866;12.750;2023-08-31T13:06:18;5.27;;;2.30;;
4375;SDS011;2202;50.866;12.750;2023-08-31T13:08:46;5.20;;;2.50;;
4375;SDS011;2202;50.866;12.750;2023-08-31T13:11:12;4.77;;;2.80;;
4375;SDS011;2202;50.866;12.750;2023-08-31T13:13:40;4.23;;;2.00;;
4375;SDS011;2202;50.866;12.750;2023-08-31T13:16:06;4.03;;;1.60;;
4375;SDS011;2202;50.866;12.750;2023-08-31T13:18:35;4.60;;;2.20;;
4375;SDS011;2202;50.866;12.750;2023-08-31T13:21:01;3.73;;;2.23;;
4375;SDS011;2202;50.866;12.750;2023-08-31T13:23:28;4.70;;;2.33;;
4375;SDS011;2202;50.866;12.750;2023-08-31T13:25:55;3.87;;;2.23;;
4375;SDS011;2202;50.866;12.750;2023-08-31T13:28:22;4.60;;;2.33;;
4375;SDS011;2202;50.866;12.750;2023-08-31T13:30:49;7.80;;;2.90;;
4375;SDS011;2202;50.866;12.750;2023-08-31T13:33:16;4.83;;;1.80;;
4375;SDS011;2202;50.866;12.750;2023-08-31T13:35:46;4.50;;;2.20;;
4375;SDS011;2202;50.866;12.750;2023-08-31T13:38:13;3.87;;;2.17;;
4375;SDS011;2202;50.866;12.750;2023-08-31T13:40:40;3.67;;;2.03;;
4375;SDS011;2202;50.866;12.750;2023-08-31T13:43:07;5.63;;;2.40;;
4375;SDS011;2202;50.866;12.750;2023-08-31T13:45:34;6.03;;;2.20;;
4375;SDS011;2202;50.866;12.750;2023-08-31T13:48:01;4.60;;;2.40;;
4375;SDS011;2202;50.866;12.750;2023-08-31T13:50:29;4.50;;;2.47;;
4375;SDS011;2202;50.866;12.750;2023-08-31T13:52:57;3.80;;;2.17;;
4375;SDS011;2202;50.866;12.750;2023-08-31T13:55:24;2.80;;;1.70;;
4375;SDS011;2202;50.866;12.750;2023-08-31T13:57:52;4.97;;;2.27;;
4375;SDS011;2202;50.866;12.750;2023-08-31T14:00:19;5.73;;;2.27;;
4375;SDS011;2202;50.866;12.750;2023-08-31T14:02:46;3.97;;;2.63;;
4375;SDS011;2202;50.866;12.750;2023-08-31T14:05:13;4.13;;;2.00;;
4375;SDS011;2202;50.866;12.750;2023-08-31T14:07:40;3.17;;;1.80;;
4375;SDS011;2202;50.866;12.750;2023-08-31T14:10:08;4.10;;;2.23;;
4375;SDS011;2202;50.866;12.750;2023-08-31T14:12:35;2.13;;;1.30;;
4375;SDS011;2202;50.866;12.750;2023-08-31T14:15:03;6.03;;;1.70;;
4375;SDS011;2202;50.866;12.750;2023-08-31T14:17:31;2.60;;;2.00;;
4375;SDS011;2202;50.866;12.750;2023-08-31T14:19:58;2.90;;;1.40;;
4375;SDS011;2202;50.866;12.750;2023-08-31T14:22:30;6.03;;;1.70;;
4375;SDS011;2202;50.866;12.750;2023-08-31T14:24:57;4.77;;;1.53;;
4375;SDS011;2202;50.866;12.750;2023-08-31T14:27:26;3.63;;;1.63;;
4375;SDS011;2202;50.866;12.750;2023-08-31T14:29:55;2.67;;;1.93;;
4375;SDS011;2202;50.866;12.750;2023-08-31T14:32:22;2.20;;;1.60;;
4375;SDS011;2202;50.866;12.750;2023-08-31T14:34:49;3.77;;;2.33;;
4375;SDS011;2202;50.866;12.750;2023-08-31T14:37:16;3.13;;;1.77;;
4375;SDS011;2202;50.866;12.750;2023-08-31T14:39:42;2.83;;;2.00;;
4375;SDS011;2202;50.866;12.750;2023-08-31T14:42:09;2.90;;;1.80;;
4375;SDS011;2202;50.866;12.750;2023-08-31T14:44:38;2.40;;;1.50;;
4375;SDS011;2202;50.866;12.750;2023-08-31T14:47:04;3.90;;;1.70;;
4375;SDS011;2202;50.866;12.750;2023-08-31T14:49:31;1.80;;;1.40;;
4375;SDS011;2202;50.866;12.750;2023-08-31T14:51:58;4.20;;;2.17;;
4375;SDS011;2202;50.866;12.750;2023-08-31T14:54:30;2.27;;;1.50;;
4375;SDS011;2202;50.866;12.750;2023-08-31T14:56:57;3.77;;;1.97;;
4375;SDS011;2202;50.866;12.750;2023-08-31T14:59:24;2.63;;;1.90;;
4375;SDS011;2202;50.866;12.750;2023-08-31T15:01:52;2.93;;;1.40;;
4375;SDS011;2202;50.866;12.750;2023-08-31T15:04:19;5.80;;;2.70;;
4375;SDS011;2202;50.866;12.750;2023-08-31T15:06:46;7.53;;;2.10;;
4375;SDS011;2202;50.866;12.750;2023-08-31T15:09:13;4.83;;;2.17;;
4375;SDS011;2202;50.866;12.750;2023-08-31T15:11:40;4.83;;;1.73;;
4375;SDS011;2202;50.866;12.750;2023-08-31T15:14:09;8.37;;;1.90;;
4375;SDS011;2202;50.866;12.750;2023-08-31T15:16:37;7.03;;;2.10;;